Time;durP1;ratioP1;P1;durP2;ratioP2;P2;SDS_P1;SDS_P2;PMS_P1;PMS_P2;Temp;Humidity;BMP_temperature;BMP_pressure;BME280_temperature;BME280_humidity;BME280_pressure;Samples;Min_cycle;Max_cycle;Signal;HPM_P1;HPM_P2
2024/02/24 00:01:09;;;;;;;;;34.67;32.00;;;;;9.94;100.00;98307.22;6306584;20;3582542;-40
2024/02/24 00:03:38;;;;;;;;;42.50;36.50;;;;;9.93;100.00;98309.06;6273313;20;2861777;-41
2024/02/24 00:06:07;;;;;;;;;42.50;36.50;;;;;9.95;100.00;98308.91;6273590;20;2839928;-40
2024/02/24 00:08:36;;;;;;;;;35.67;32.33;;;;;9.98;100.00;98308.66;6271835;20;2854547;-41
2024/02/24 00:11:05;;;;;;;;;41.00;35.00;;;;;9.85;100.00;98314.19;6302445;20;2853724;-41
2024/02/24 00:13:35;;;;;;;;;38.67;33.00;;;;;9.92;100.00;98309.16;6273568;20;2869390;-41
2024/02/24 00:16:05;;;;;;;;;37.33;33.00;;;;;9.97;99.26;98301.59;6305467;20;3619055;-41
2024/02/24 00:18:34;;;;;;;;;32.00;31.00;;;;;9.87;100.00;98302.38;6274749;20;2852434;-41
2024/02/24 00:21:04;;;;;;;;;36.00;31.33;;;;;9.94;100.00;98309.91;6275895;20;2854542;-40
2024/02/24 00:23:33;;;;;;;;;28.67;28.67;;;;;10.01;100.00;98297.72;6309856;20;3599257;-42
2024/02/24 00:26:01;;;;;;;;;32.00;29.00;;;;;10.01;100.00;98316.47;6273821;20;2845163;-42
2024/02/24 00:28:30;;;;;;;;;33.00;30.00;;;;;9.64;100.00;98309.56;6275437;20;2846177;-40
2024/02/24 00:31:00;;;;;;;;;32.67;30.00;;;;;9.60;100.00;98310.78;6270482;20;2852519;-41
2024/02/24 00:33:28;;;;;;;;;36.33;30.33;;;;;9.65;100.00;98307.72;6309645;20;3584725;-42
2024/02/24 00:35:58;;;;;;;;;35.00;30.67;;;;;9.75;100.00;98303.34;6270460;20;2868603;-40
2024/02/24 00:38:27;;;;;;;;;30.33;30.33;;;;;9.87;100.00;98302.38;6308666;20;3580631;-40
2024/02/24 00:40:56;;;;;;;;;39.00;34.00;;;;;9.89;100.00;98303.06;6273038;20;3620109;-41
2024/02/24 00:43:25;;;;;;;;;40.00;33.00;;;;;9.75;100.00;98303.34;6307461;20;3597698;-40
2024/02/24 00:45:53;;;;;;;;;34.00;31.50;;;;;9.74;100.00;98296.28;6272123;20;2846204;-40
2024/02/24 00:48:22;;;;;;;;;32.33;29.67;;;;;9.95;100.00;98298.19;6274615;20;3596231;-41
2024/02/24 00:50:52;;;;;;;;;35.33;30.33;;;;;9.77;100.00;98306.75;6269232;20;2864977;-41
2024/02/24 00:53:21;;;;;;;;;40.33;33.00;;;;;10.01;100.00;98306.59;6304856;20;2873389;-42
2024/02/24 00:55:50;;;;;;;;;35.33;31.67;;;;;10.00;100.00;98301.34;6304151;20;3600333;-41
2024/02/24 00:58:19;;;;;;;;;34.50;31.00;;;;;10.01;100.00;98293.19;6272257;20;2835842;-41
2024/02/24 01:00:48;;;;;;;;;34.00;29.33;;;;;10.08;100.00;98296.22;6274069;20;3600261;-40
2024/02/24 01:03:17;;;;;;;;;27.33;24.33;;;;;9.96;99.52;98289.19;6303621;20;3602596;-42
2024/02/24 01:05:47;;;;;;;;;29.67;28.67;;;;;10.09;99.20;98296.09;6275175;20;2851479;-42
2024/02/24 01:08:15;;;;;;;;;28.33;26.67;;;;;10.11;99.51;98294.16;6307447;20;3600338;-44
2024/02/24 01:10:45;;;;;;;;;28.33;27.33;;;;;10.13;98.60;98280.59;6274145;20;2862929;-40
2024/02/24 01:13:14;;;;;;;;;22.00;22.00;;;;;10.25;97.21;98282.28;6304578;20;2822218;-41
2024/02/24 01:15:44;;;;;;;;;31.33;26.00;;;;;10.03;98.57;98290.38;6275468;20;3586790;-42
2024/02/24 01:18:12;;;;;;;;;27.00;24.33;;;;;9.92;98.77;98285.03;6308592;20;3583721;-41
2024/02/24 01:20:47;;;;;;;;;26.00;21.00;;;;;10.20;97.49;98289.84;6272297;20;2848264;-40
2024/02/24 01:23:17;;;;;;;;;26.00;26.00;;;;;10.17;97.03;98287.44;6273883;20;2551407;-43
2024/02/24 01:25:46;;;;;;;;;25.00;25.00;;;;;9.98;97.30;98281.84;6272257;20;2844156;-43
2024/02/24 01:28:14;;;;;;;;;21.50;21.50;;;;;10.33;96.35;98281.66;6272358;20;2837874;-42
2024/02/24 01:30:43;;;;;;;;;24.00;23.50;;;;;9.97;96.58;98280.16;6272152;20;2840012;-41
2024/02/24 01:33:11;;;;;;;;;25.00;21.00;;;;;9.87;98.07;98280.91;6269277;20;2500433;-41
2024/02/24 01:35:40;;;;;;;;;24.50;22.00;;;;;10.08;99.18;98278.31;6268194;20;2848990;-39
2024/02/24 01:38:09;;;;;;;;;26.50;22.00;;;;;9.88;100.00;98274.56;6273890;20;2837775;-39
2024/02/24 01:40:38;;;;;;;;;21.50;20.00;;;;;9.97;100.00;98274.78;6272160;20;2837915;-41
2024/02/24 01:43:33;;;;;;;;;22.50;20.00;;;;;9.96;100.00;98271.25;6271044;20;2833539;-40
2024/02/24 01:46:01;;;;;;;;;23.00;23.00;;;;;10.07;100.00;98276.59;6269905;20;2500295;-42
2024/02/24 01:48:32;;;;;;;;;22.00;21.00;;;;;9.92;99.85;98275.16;6277244;20;2836727;-39
2024/02/24 01:51:02;;;;;;;;;21.50;18.50;;;;;9.98;100.00;98266.63;6275133;20;2833771;-40
2024/02/24 01:53:31;;;;;;;;;21.00;19.50;;;;;10.03;100.00;98272.47;6274465;20;2832664;-40
2024/02/24 01:56:06;;;;;;;;;22.50;19.00;;;;;10.06;99.28;98280.25;6278711;20;2827375;-41
2024/02/24 01:58:37;;;;;;;;;24.00;22.00;;;;;9.96;99.71;98275.78;6276137;20;2848224;-41
2024/02/24 02:01:09;;;;;;;;;24.00;22.00;;;;;10.01;100.00;98270.91;6274908;20;2839872;-40
2024/02/24 02:03:38;;;;;;;;;22.00;18.50;;;;;9.94;100.00;98272.38;6275745;20;2834758;-42
2024/02/24 02:06:07;;;;;;;;;22.00;22.00;;;;;9.88;100.00;98269.22;6280039;20;2842006;-40
2024/02/24 02:08:35;;;;;;;;;19.00;18.00;;;;;9.97;99.88;98274.78;6271712;20;2500335;-41
2024/02/24 02:11:03;;;;;;;;;21.50;20.00;;;;;10.02;99.99;98268.06;6273974;20;2846129;-40
2024/02/24 02:13:31;;;;;;;;;19.50;18.00;;;;;10.11;98.62;98274.53;6276630;20;2500389;-39
2024/02/24 02:16:01;;;;;;;;;27.50;21.00;;;;;10.17;98.83;98273.16;6277429;20;2847277;-40
2024/02/24 02:18:30;;;;;;;;;20.00;18.50;;;;;10.19;98.44;98268.50;6278019;20;2844113;-40
2024/02/24 02:21:04;;;;;;;;;20.00;20.00;;;;;10.03;99.37;98267.13;6278413;20;2848201;-40
2024/02/24 02:23:32;;;;;;;;;20.00;19.00;;;;;10.15;97.57;98277.78;6274659;20;2500304;-41
2024/02/24 02:26:02;;;;;;;;;18.67;17.00;;;;;10.11;98.42;98274.53;6276121;20;3572126;-40
2024/02/24 02:28:31;;;;;;;;;18.00;17.00;;;;;10.15;98.67;98272.44;6278626;20;2836109;-40
2024/02/24 02:31:01;;;;;;;;;17.67;16.00;;;;;10.14;97.09;98274.28;6273635;20;3550392;-42
2024/02/24 02:33:29;;;;;;;;;20.00;20.00;;;;;10.11;99.54;98282.56;6308479;20;2837873;-42
2024/02/24 02:35:58;;;;;;;;;17.00;17.00;;;;;10.17;98.49;98282.06;6278953;20;2827367;-42
2024/02/24 02:38:26;;;;;;;;;16.50;16.50;;;;;10.26;97.13;98286.66;6277627;20;2500352;-42
2024/02/24 02:40:55;;;;;;;;;20.00;18.33;;;;;10.25;97.66;98286.78;6279013;20;3565928;-40
2024/02/24 02:43:24;;;;;;;;;18.00;18.00;;;;;10.30;98.08;98292.66;6276556;20;2832623;-41
2024/02/24 02:45:52;;;;;;;;;22.00;22.00;;;;;10.04;99.69;98292.09;6277344;20;2836768;-40
2024/02/24 02:48:20;;;;;;;;;24.50;22.00;;;;;10.21;99.89;98294.22;6274901;20;2500290;-45
2024/02/24 02:50:49;;;;;;;;;20.00;19.50;;;;;10.10;100.00;98291.56;6276798;20;2835787;-43
2024/02/24 02:53:18;;;;;;;;;24.00;21.00;;;;;10.24;99.23;98295.78;6274925;20;2850316;-45
2024/02/24 02:55:47;;;;;;;;;26.50;25.00;;;;;10.01;100.00;98298.56;6274624;20;2847221;-44
2024/02/24 02:58:15;;;;;;;;;22.00;19.50;;;;;10.09;100.00;98304.13;6274008;20;2837881;-45
2024/02/24 03:00:46;;;;;;;;;22.00;22.00;;;;;10.22;100.00;98308.50;6274949;20;2833734;-43
2024/02/24 03:03:15;;;;;;;;;22.00;20.00;;;;;9.81;100.00;98305.53;6274972;20;2842986;-43
2024/02/24 03:05:44;;;;;;;;;18.50;18.50;;;;;9.99;100.00;98315.75;6276218;20;2836864;-44
2024/02/24 03:08:13;;;;;;;;;19.67;19.00;;;;;9.89;100.00;98326.34;6277549;20;3567007;-45
2024/02/24 03:10:41;;;;;;;;;19.00;18.00;;;;;9.88;100.00;98325.50;6274834;20;2500315;-44
2024/02/24 03:13:10;;;;;;;;;23.00;18.50;;;;;9.51;100.00;98319.56;6278207;20;2844117;-45
2024/02/24 03:15:38;;;;;;;;;16.33;14.67;;;;;9.68;100.00;98323.56;6274311;20;3539983;-46
2024/02/24 03:18:07;;;;;;;;;20.00;20.00;;;;;9.80;100.00;98327.94;6275145;20;2830655;-46
2024/02/24 03:20:36;;;;;;;;;16.33;16.33;;;;;9.64;100.00;98333.69;6275401;20;3559633;-43
2024/02/24 03:23:04;;;;;;;;;25.00;20.00;;;;;9.58;100.00;98327.94;6274293;20;2500292;-43
2024/02/24 03:25:33;;;;;;;;;19.00;19.00;;;;;9.19;100.00;98322.09;6277052;20;2837822;-43
2024/02/24 03:28:02;;;;;;;;;19.00;17.50;;;;;9.62;100.00;98332.94;6276019;20;2831548;-44
2024/02/24 03:30:31;;;;;;;;;21.00;21.00;;;;;9.78;100.00;98343.28;6276656;20;2841040;-43
2024/02/24 03:32:59;;;;;;;;;24.00;21.50;;;;;9.81;100.00;98345.72;6277209;20;2829453;-45
2024/02/24 03:35:29;;;;;;;;;22.50;22.50;;;;;9.43;100.00;98346.94;6271975;20;2848222;-43
2024/02/24 03:37:57;;;;;;;;;23.00;21.50;;;;;9.83;100.00;98353.66;6274654;20;2832593;-44
2024/02/24 03:40:26;;;;;;;;;19.50;19.50;;;;;10.05;100.00;98363.50;6275253;20;2836863;-45
2024/02/24 03:42:55;;;;;;;;;16.00;15.00;;;;;10.07;100.00;98373.13;6275245;20;3552473;-44
2024/02/24 03:45:22;;;;;;;;;16.00;16.00;;;;;9.83;100.00;98367.91;6272718;20;2500782;-44
2024/02/24 03:47:51;;;;;;;;;18.00;18.00;;;;;9.92;100.00;98368.16;6277274;20;2834648;-43
2024/02/24 03:50:19;;;;;;;;;16.00;16.00;;;;;9.95;100.00;98363.38;6275228;20;2498766;-43
2024/02/24 03:52:48;;;;;;;;;15.33;15.33;;;;;9.66;100.00;98379.09;6274598;20;3545153;-44
2024/02/24 03:55:16;;;;;;;;;18.50;15.00;;;;;10.05;100.00;98379.59;6269377;20;2498204;-43
2024/02/24 03:57:44;;;;;;;;;18.00;14.67;;;;;9.66;100.00;98373.75;6271867;20;3551422;-43
2024/02/24 04:00:14;;;;;;;;;13.67;13.67;;;;;9.93;100.00;98375.25;6306533;20;3515056;-43
2024/02/24 04:02:42;;;;;;;;;14.00;11.00;;;;;10.11;100.00;98381.81;6305473;20;2787840;-42
2024/02/24 04:05:12;;;;;;;;;14.67;13.00;;;;;10.20;100.00;98389.09;6270519;20;2799289;-43
2024/02/24 04:07:42;;;;;;;;;11.40;11.40;;;;;10.27;100.00;98393.03;6330899;20;2783632;-42
2024/02/24 04:10:09;;;;;;;;;9.00;9.00;;;;;10.33;99.86;98402.41;6279480;20;2751359;-42
2024/02/24 04:12:37;;;;;;;;;11.00;10.00;;;;;10.51;96.69;98405.41;6270374;20;2786808;-42
2024/02/24 04:15:07;;;;;;;;;13.80;11.40;;;;;10.54;96.55;98405.16;6299470;20;2789923;-43
2024/02/24 04:17:35;;;;;;;;;12.00;10.00;;;;;10.43;98.31;98399.81;6275951;20;2792073;-42
2024/02/24 04:20:06;;;;;;;;;11.20;10.80;;;;;10.25;100.00;98399.44;6299757;20;2794061;-42
2024/02/24 04:22:34;;;;;;;;;9.00;9.00;;;;;10.46;100.00;98405.78;6278389;20;2754121;-45
2024/02/24 04:25:02;;;;;;;;;11.50;10.00;;;;;10.51;100.00;98397.38;6273568;20;2788822;-42
2024/02/24 04:27:30;;;;;;;;;9.00;9.00;;;;;10.27;100.00;98397.50;6277679;20;2752455;-43
2024/02/24 04:29:58;;;;;;;;;14.00;10.00;;;;;10.18;100.00;98401.75;6269406;20;2790941;-43
2024/02/24 04:32:27;;;;;;;;;10.00;9.50;;;;;9.86;100.00;98390.94;6271291;20;2773215;-43
2024/02/24 04:34:56;;;;;;;;;10.20;10.20;;;;;9.79;100.00;98392.41;6298413;20;2788853;-44
2024/02/24 04:37:24;;;;;;;;;10.50;10.50;;;;;10.20;100.00;98398.97;6276449;20;2781576;-43
2024/02/24 04:39:52;;;;;;;;;9.00;9.00;;;;;10.29;100.00;98396.44;6277364;20;2752365;-45
2024/02/24 04:42:20;;;;;;;;;9.50;9.00;;;;;9.94;100.00;98390.34;6282043;20;2763854;-43
2024/02/24 04:44:49;;;;;;;;;11.00;9.50;;;;;9.79;100.00;98385.19;6270471;20;2768076;-44
2024/02/24 04:47:22;;;;;;;;;9.00;8.00;;;;;9.74;100.00;98382.06;6277074;20;2758613;-46
2024/02/24 04:49:50;;;;;;;;;9.00;8.00;;;;;9.78;100.00;98382.66;6277660;20;2740981;-43
2024/02/24 04:52:17;;;;;;;;;9.00;9.00;;;;;9.79;100.00;98395.91;6270386;20;2748275;-43
2024/02/24 04:54:46;;;;;;;;;11.00;11.00;;;;;9.71;100.00;98395.69;6274492;20;2789871;-43
2024/02/24 04:57:14;;;;;;;;;10.50;10.50;;;;;9.87;100.00;98404.25;6273086;20;2785719;-43
2024/02/24 04:59:42;;;;;;;;;11.00;10.00;;;;;9.73;100.00;98406.28;6281491;20;2782678;-43
2024/02/24 05:02:10;;;;;;;;;12.00;11.00;;;;;9.63;100.00;98406.16;6278743;20;2789893;-43
2024/02/24 05:04:37;;;;;;;;;12.50;11.00;;;;;9.74;100.00;98407.97;6279257;20;2792005;-44
2024/02/24 05:07:06;;;;;;;;;13.33;12.00;;;;;9.88;100.00;98418.50;6275270;20;2796168;-45
2024/02/24 05:09:34;;;;;;;;;8.50;7.00;;;;;9.76;100.00;98427.50;6307752;20;2744069;-43
2024/02/24 05:12:02;;;;;;;;;14.00;12.50;;;;;9.52;100.00;98430.25;6278258;20;2803406;-43
2024/02/24 05:14:31;;;;;;;;;15.00;15.00;;;;;9.43;100.00;98438.03;6271530;20;3527356;-42
2024/02/24 05:16:58;;;;;;;;;16.00;12.00;;;;;9.58;100.00;98427.09;6305863;20;2802381;-43
2024/02/24 05:19:26;;;;;;;;;9.50;7.50;;;;;9.88;100.00;98438.09;6276801;20;2755457;-44
2024/02/24 05:21:56;;;;;;;;;9.00;9.00;;;;;10.06;100.00;98443.84;6274297;20;2754441;-46
2024/02/24 05:24:23;;;;;;;;;10.00;10.00;;;;;10.13;100.00;98452.25;6277261;20;2774325;-41
2024/02/24 05:26:51;;;;;;;;;8.00;8.00;;;;;10.10;100.00;98460.53;6283235;20;2735790;-40
2024/02/24 05:29:19;;;;;;;;;10.00;8.00;;;;;10.06;100.00;98467.13;6278515;20;2757573;-40
2024/02/24 05:31:49;;;;;;;;;10.20;10.00;;;;;10.17;100.00;98469.81;6300913;20;2792024;-40
2024/02/24 05:34:18;;;;;;;;;9.00;8.80;;;;;10.24;100.00;98459.44;6305034;20;2748236;-40
2024/02/24 05:36:47;;;;;;;;;11.50;8.00;;;;;10.14;100.00;98459.31;6308125;20;2773191;-40
2024/02/24 05:39:14;;;;;;;;;7.00;7.00;;;;;10.22;100.00;98454.19;6283188;20;2746210;-41
2024/02/24 05:41:42;;;;;;;;;10.00;9.00;;;;;10.18;100.00;98465.28;6276811;20;2772243;-41
2024/02/24 05:44:10;;;;;;;;;9.00;9.00;;;;;10.06;100.00;98459.09;6277166;20;2756544;-41
2024/02/24 05:46:39;;;;;;;;;11.00;11.00;;;;;10.18;100.00;98471.50;6305119;20;2794073;-40
2024/02/24 05:49:07;;;;;;;;;11.00;9.00;;;;;10.16;100.00;98488.69;6279022;20;2764866;-41
2024/02/24 05:51:39;;;;;;;;;11.00;8.40;;;;;10.20;100.00;98491.00;6305796;20;2775307;-41
2024/02/24 05:54:07;;;;;;;;;11.00;10.00;;;;;9.89;100.00;98482.69;6273859;20;2791974;-42
2024/02/24 05:56:40;;;;;;;;;8.14;8.14;;;;;10.08;100.00;98486.63;6321546;20;1800302;-40
2024/02/24 05:59:08;;;;;;;;;10.50;10.50;;;;;9.85;100.00;98475.88;6313947;20;2798192;-43
2024/02/24 06:01:36;;;;;;;;;12.50;10.00;;;;;9.65;100.00;98468.53;6275532;20;2792124;-41
2024/02/24 06:04:05;;;;;;;;;13.20;12.00;;;;;9.61;100.00;98467.03;6294884;20;2805529;-43
2024/02/24 06:06:33;;;;;;;;;11.00;10.00;;;;;10.17;100.00;98472.50;6277655;20;2791724;-42
2024/02/24 06:09:01;;;;;;;;;13.00;11.00;;;;;10.26;100.00;98487.00;6283413;20;2796125;-42
2024/02/24 06:11:30;;;;;;;;;15.00;11.00;;;;;10.30;100.00;98489.34;6278822;20;2802532;-41
2024/02/24 06:13:58;;;;;;;;;9.00;9.00;;;;;10.12;100.00;98498.81;6305520;20;2759769;-41
2024/02/24 06:16:26;;;;;;;;;14.50;13.00;;;;;10.16;100.00;98504.78;6279537;20;2795286;-43
2024/02/24 06:18:54;;;;;;;;;19.00;17.00;;;;;10.18;100.00;98511.72;6279289;20;2827383;-43
2024/02/24 06:21:22;;;;;;;;;17.00;15.00;;;;;10.38;100.00;98512.03;6275822;20;2494095;-41
2024/02/24 06:23:50;;;;;;;;;13.67;13.67;;;;;10.51;100.00;98513.59;6276843;20;3518042;-44
2024/02/24 06:26:19;;;;;;;;;16.67;13.00;;;;;10.35;100.00;98517.63;6306271;20;3548298;-41
2024/02/24 06:28:48;;;;;;;;;16.00;16.00;;;;;10.56;100.00;98513.25;6307859;20;3553525;-40
2024/02/24 06:31:18;;;;;;;;;21.00;18.00;;;;;10.48;100.00;98518.38;6276694;20;2826416;-41
2024/02/24 06:33:46;;;;;;;;;17.50;16.50;;;;;10.60;100.00;98524.56;6274369;20;2829479;-41
2024/02/24 06:36:16;;;;;;;;;10.40;9.20;;;;;10.61;100.00;98532.53;6300046;20;2762854;-41
2024/02/24 06:38:45;;;;;;;;;13.00;13.00;;;;;10.74;100.00;98538.59;6276389;20;3525769;-41
2024/02/24 06:41:14;;;;;;;;;13.67;12.33;;;;;10.97;100.00;98549.28;6307561;20;2798381;-41
2024/02/24 06:43:43;;;;;;;;;17.00;15.00;;;;;10.92;100.00;98555.03;6303679;20;3547197;-43
2024/02/24 06:46:12;;;;;;;;;15.33;15.33;;;;;10.71;100.00;98554.94;6274433;20;3540916;-42
2024/02/24 06:48:39;;;;;;;;;12.00;12.00;;;;;11.15;100.00;98558.53;6274886;20;2796126;-42
2024/02/24 06:51:08;;;;;;;;;15.67;13.00;;;;;11.18;100.00;98552.06;6275783;20;3546970;-41
2024/02/24 06:53:36;;;;;;;;;10.00;10.00;;;;;11.29;98.99;98564.59;6309034;20;2787835;-41
2024/02/24 06:56:10;;;;;;;;;10.00;10.00;;;;;11.38;98.74;98570.09;6281133;20;2796125;-41
2024/02/24 06:58:39;;;;;;;;;12.00;11.67;;;;;11.45;96.84;98577.63;6273901;20;2789946;-40
2024/02/24 07:01:08;;;;;;;;;12.67;12.67;;;;;11.24;99.72;98586.47;6304602;20;3539963;-42
2024/02/24 07:03:37;;;;;;;;;15.00;12.00;;;;;11.45;98.41;98588.38;6303513;20;3523200;-43
2024/02/24 07:06:05;;;;;;;;;8.00;8.00;;;;;11.45;97.65;98591.91;6310192;20;2744045;-42
2024/02/24 07:08:35;;;;;;;;;10.80;10.00;;;;;11.11;99.38;98591.13;6300721;20;2792051;-41
2024/02/24 07:11:04;;;;;;;;;14.20;13.60;;;;;11.43;96.47;98594.75;6299365;20;2801327;-42
2024/02/24 07:13:33;;;;;;;;;15.67;14.00;;;;;11.43;95.40;98599.28;6274977;20;3541237;-41
2024/02/24 07:16:01;;;;;;;;;12.00;11.00;;;;;11.64;94.62;98600.19;6305751;20;2795130;-42
2024/02/24 07:18:29;;;;;;;;;11.67;10.67;;;;;11.82;93.67;98604.97;6274464;20;2787866;-42
2024/02/24 07:20:57;;;;;;;;;11.00;11.00;;;;;11.77;95.11;98613.44;6308813;20;2791969;-41
2024/02/24 07:23:28;;;;;;;;;11.00;8.00;;;;;11.77;94.04;98615.25;6276752;20;2766935;-40
2024/02/24 07:26:02;;;;;;;;;7.57;7.57;;;;;12.07;92.81;98615.41;6319759;20;3454420;-42
2024/02/24 07:28:31;;;;;;;;;10.00;8.50;;;;;11.71;92.62;98616.63;6303727;20;2777799;-42
2024/02/24 07:30:59;;;;;;;;;14.00;11.00;;;;;12.11;90.57;98616.00;6276267;20;2805597;-42
2024/02/24 07:33:27;;;;;;;;;11.00;9.00;;;;;12.14;90.71;98620.25;6271619;20;2782591;-43
2024/02/24 07:35:55;;;;;;;;;9.33;9.00;;;;;12.04;91.57;98623.75;6273444;20;2749228;-43
2024/02/24 07:38:24;;;;;;;;;14.67;11.67;;;;;11.75;92.24;98630.69;6302851;20;3513886;-42
2024/02/24 07:40:54;;;;;;;;;12.20;10.00;;;;;12.18;92.67;98635.16;6328409;20;2776348;-42
2024/02/24 07:43:22;;;;;;;;;14.00;13.50;;;;;12.39;91.69;98657.56;6270152;20;2791977;-41
2024/02/24 07:45:50;;;;;;;;;7.00;7.00;;;;;11.96;89.77;98666.59;6275922;20;2735698;-42
2024/02/24 07:48:18;;;;;;;;;9.50;9.00;;;;;12.07;92.04;98663.84;6274457;20;2757575;-42
2024/02/24 07:50:46;;;;;;;;;9.00;9.00;;;;;12.43;89.09;98659.00;6274218;20;2746121;-43
2024/02/24 07:53:14;;;;;;;;;9.00;9.00;;;;;12.43;89.54;98658.16;6281554;20;2760727;-42
2024/02/24 07:55:41;;;;;;;;;7.00;7.00;;;;;12.28;88.63;98657.63;6266202;20;2736815;-43
2024/02/24 07:58:09;;;;;;;;;11.00;10.00;;;;;12.57;87.68;98673.13;6272195;20;2792951;-42
2024/02/24 08:00:41;;;;;;;;;9.00;9.00;;;;;12.42;88.81;98662.69;6315969;20;1796167;-43
2024/02/24 08:03:14;;;;;;;;;9.50;8.00;;;;;12.84;87.71;98665.34;6301083;20;2741990;-43
2024/02/24 08:05:41;;;;;;;;;9.00;9.00;;;;;12.51;88.00;98677.22;6276319;20;2745893;-43
2024/02/24 08:08:09;;;;;;;;;7.00;7.00;;;;;12.44;88.07;98678.72;6275800;20;2739873;-42
2024/02/24 08:10:37;;;;;;;;;11.00;11.00;;;;;12.31;88.04;98673.50;6271147;20;2787231;-42
2024/02/24 08:13:06;;;;;;;;;6.60;6.60;;;;;12.47;87.19;98678.44;6299804;20;2744033;-41
2024/02/24 08:15:34;;;;;;;;;9.00;9.00;;;;;12.42;87.31;98677.97;6306911;20;2758620;-43
2024/02/24 08:18:02;;;;;;;;;8.50;8.50;;;;;12.76;87.15;98691.25;6272303;20;2756577;-41
2024/02/24 08:20:30;;;;;;;;;9.00;9.00;;;;;12.64;85.22;98685.09;6281394;20;2757622;-42
2024/02/24 08:23:03;;;;;;;;;11.00;9.80;;;;;12.36;86.52;98691.97;6297281;20;2779593;-43
2024/02/24 08:25:33;;;;;;;;;10.20;9.00;;;;;12.64;85.81;98701.25;6301517;20;2758681;-44
2024/02/24 08:28:00;;;;;;;;;9.00;8.50;;;;;12.88;84.53;98691.03;6276146;20;2759695;-42
2024/02/24 08:30:29;;;;;;;;;10.00;9.33;;;;;12.87;84.25;98700.09;6277119;20;2764865;-41
2024/02/24 08:32:57;;;;;;;;;8.50;8.50;;;;;12.97;84.25;98705.53;6306188;20;2741981;-42
2024/02/24 08:35:25;;;;;;;;;9.50;9.50;;;;;13.10;83.49;98703.47;6274251;20;2775305;-41
2024/02/24 08:37:53;;;;;;;;;9.00;7.00;;;;;13.21;82.61;98710.59;6277686;20;2737829;-42
2024/02/24 08:40:21;;;;;;;;;10.00;10.00;;;;;13.11;83.01;98712.41;6275892;20;2785737;-42
2024/02/24 08:42:50;;;;;;;;;11.33;11.33;;;;;13.49;80.98;98717.16;6306224;20;3505493;-44
2024/02/24 08:45:18;;;;;;;;;10.00;10.00;;;;;13.72;79.64;98723.19;6307101;20;2819056;-43
2024/02/24 08:47:46;;;;;;;;;12.00;11.00;;;;;13.24;79.51;98739.13;6275454;20;2792017;-43
2024/02/24 08:50:16;;;;;;;;;8.80;5.60;;;;;13.21;80.45;98734.88;6331509;20;2745080;-44
2024/02/24 08:52:44;;;;;;;;;8.50;7.50;;;;;13.34;78.31;98732.81;6310006;20;2739897;-44
2024/02/24 08:55:17;;;;;;;;;9.00;7.50;;;;;13.26;79.76;98738.03;6276520;20;2734682;-43
2024/02/24 08:57:45;;;;;;;;;8.00;6.50;;;;;13.14;81.01;98742.66;6280779;20;2744034;-44
2024/02/24 09:00:14;;;;;;;;;8.00;8.00;;;;;13.30;80.59;98747.59;6282791;20;2752433;-42
2024/02/24 09:02:44;;;;;;;;;9.60;8.80;;;;;13.16;80.06;98747.88;6304238;20;2759766;-43
2024/02/24 09:05:12;;;;;;;;;9.00;6.00;;;;;13.48;78.16;98741.53;6279956;20;2732813;-43
2024/02/24 09:07:40;;;;;;;;;4.00;4.00;;;;;13.06;80.09;98749.69;6277204;20;2749330;-43
2024/02/24 09:10:09;;;;;;;;;3.00;3.00;;;;;13.52;78.91;98748.38;6285232;20;2740930;-42
2024/02/24 09:12:40;;;;;;;;;7.43;7.43;;;;;14.18;75.44;98754.06;6320491;20;3448256;-41
2024/02/24 09:15:08;;;;;;;;;3.00;3.00;;;;;13.25;77.06;98744.41;6306921;20;2752965;-42
2024/02/24 09:17:36;;;;;;;;;4.00;4.00;;;;;13.59;74.67;98754.94;6281063;20;2756624;-42
2024/02/24 09:20:05;;;;;;;;;4.00;4.00;;;;;13.21;75.98;98751.03;6279182;20;2752466;-44
2024/02/24 09:22:33;;;;;;;;;4.00;3.00;;;;;13.27;75.16;98753.25;6280048;20;2742054;-42
2024/02/24 09:25:00;;;;;;;;;4.00;4.00;;;;;13.51;72.51;98752.94;6278286;20;2754535;-42
2024/02/24 09:27:28;;;;;;;;;5.00;4.50;;;;;13.50;74.27;98758.44;6277411;20;2737898;-43
2024/02/24 09:29:56;;;;;;;;;3.50;3.50;;;;;13.49;71.81;98767.53;6280936;20;2743020;-41
2024/02/24 09:32:24;;;;;;;;;4.00;3.00;;;;;13.47;72.21;98766.81;6281071;20;2734684;-43
2024/02/24 09:34:53;;;;;;;;;0.00;0.00;;;;;13.34;69.81;98767.88;6296045;20;1800407;-42
2024/02/24 09:37:21;;;;;;;;;2.00;2.00;;;;;13.58;69.04;98766.69;6311036;20;2744064;-41
2024/02/24 09:39:48;;;;;;;;;1.00;1.00;;;;;13.95;67.83;98776.91;6282951;20;2749338;-42
2024/02/24 09:42:16;;;;;;;;;3.00;2.00;;;;;13.82;67.46;98780.72;6282168;20;2742158;-43
2024/02/24 09:44:44;;;;;;;;;4.00;3.00;;;;;14.19;66.70;98790.91;6278453;20;2756592;-42
2024/02/24 09:47:14;;;;;;;;;5.00;5.00;;;;;14.19;65.79;98790.91;6283978;20;2748312;-44
2024/02/24 09:49:42;;;;;;;;;5.00;3.00;;;;;14.35;63.61;98794.88;6277306;20;2744073;-43
2024/02/24 09:52:10;;;;;;;;;3.00;3.00;;;;;14.49;65.44;98794.47;6280073;20;2748214;-42
2024/02/24 09:54:38;;;;;;;;;1.00;1.00;;;;;14.32;65.31;98808.66;6281708;20;2727375;-45
2024/02/24 09:57:05;;;;;;;;;3.00;2.00;;;;;13.89;63.79;98802.59;6283666;20;2752350;-43
2024/02/24 09:59:35;;;;;;;;;1.00;1.00;;;;;13.92;63.94;98804.16;6281731;20;2727817;-42
2024/02/24 10:02:03;;;;;;;;;2.00;2.00;;;;;13.94;64.21;98807.59;6278654;20;2742107;-42
2024/02/24 10:04:31;;;;;;;;;3.00;2.00;;;;;14.07;64.83;98810.03;6281924;20;2753456;-43
2024/02/24 10:06:59;;;;;;;;;4.00;3.00;;;;;14.12;64.49;98824.81;6282062;20;2756695;-43
2024/02/24 10:09:28;;;;;;;;;3.00;1.75;;;;;14.04;64.40;98830.91;6299068;20;1804651;-43
2024/02/24 10:11:55;;;;;;;;;1.50;1.50;;;;;14.03;63.35;98833.75;6315508;20;2736859;-42
2024/02/24 10:14:24;;;;;;;;;1.00;1.00;;;;;13.95;63.50;98833.56;6282822;20;2724269;-42
2024/02/24 10:16:53;;;;;;;;;3.00;2.00;;;;;13.96;63.87;98838.00;6280050;20;2750309;-42
2024/02/24 10:19:21;;;;;;;;;2.67;1.00;;;;;14.10;63.99;98834.91;6304325;20;1805713;-42
2024/02/24 10:21:52;;;;;;;;;2.00;2.00;;;;;13.96;66.25;98835.31;6314244;20;2742079;-42
2024/02/24 10:24:20;;;;;;;;;3.00;2.00;;;;;14.28;65.50;98838.66;6279500;20;2743022;-43
2024/02/24 10:26:52;;;;;;;;;2.00;2.00;;;;;14.17;64.30;98836.06;6286195;20;2737933;-48
2024/02/24 10:29:20;;;;;;;;;2.00;2.00;;;;;14.32;64.50;98838.38;6281992;20;2752382;-46
2024/02/24 10:31:50;;;;;;;;;3.00;1.50;;;;;14.18;66.08;98832.38;6286043;20;2731562;-45
2024/02/24 10:34:22;;;;;;;;;8.71;8.43;;;;;14.01;65.75;98835.75;6319767;20;1798322;-47
2024/02/24 10:36:51;;;;;;;;;24.50;21.00;;;;;14.11;64.74;98835.75;6304208;20;2832035;-47
2024/02/24 10:39:20;;;;;;;;;8.50;8.50;;;;;13.88;64.47;98832.44;6281697;20;2756501;-46
2024/02/24 10:41:49;;;;;;;;;2.80;2.20;;;;;13.83;64.85;98827.44;6306413;20;2752880;-45
2024/02/24 10:44:21;;;;;;;;;35.33;32.00;;;;;14.08;63.15;98826.09;6305198;20;3595088;-45
2024/02/24 10:46:52;;;;;;;;;30.67;27.00;;;;;14.04;64.09;98830.06;6275963;20;3603453;-47
2024/02/24 10:49:21;;;;;;;;;33.00;27.00;;;;;13.81;63.91;98832.97;6313555;20;3614833;-44
2024/02/24 10:51:49;;;;;;;;;24.33;21.00;;;;;14.00;62.29;98839.41;6278517;20;2841972;-44
2024/02/24 10:54:29;;;;;;;;;6.00;2.00;;;;;13.60;63.38;98842.94;6305612;20;2756044;-45
2024/02/24 10:57:01;;;;;;;;;13.67;13.33;;;;;13.99;63.68;98845.81;6274510;20;3522173;-46
2024/02/24 10:59:32;;;;;;;;;26.67;24.67;;;;;14.31;62.51;98845.63;6308924;20;3597240;-46
2024/02/24 11:02:07;;;;;;;;;9.00;7.00;;;;;14.26;61.57;98840.63;6303357;20;2750298;-45
2024/02/24 11:04:41;;;;;;;;;3.00;2.00;;;;;14.28;61.02;98843.19;6279157;20;2752446;-44
2024/02/24 11:07:22;;;;;;;;;9.00;4.50;;;;;14.02;62.40;98840.13;6279949;20;2748239;-45
2024/02/24 11:09:55;;;;;;;;;3.00;3.00;;;;;14.27;62.71;98842.34;6280744;20;2752370;-44
2024/02/24 11:12:23;;;;;;;;;6.00;6.00;;;;;14.21;64.16;98839.34;6284712;20;2734706;-47